HomeShort term forecast

Short term forecast

Graphical weather forecast for the next 48 hours for Montreal:
Short term forecast
This weather forecast is automatically refreshed every 3 hours.

Hourly Experimental Forecast for the next 48 hours

Overall summary: Mostly cloudy starting tomorrow morning.

 Date & Hour   Temp   Feel   Baro   Hum   Speed & Bearing   Wind Gust   Precip.%   Precip.   Visibility   Cloud cover   Conditions 
 27/05/2018 - 04:00  11.8°C  11.8°C  1015.9 hPa  67%  12.8 km/h   23.1 km/h  0%  --  16.1km  37%  Partly Cloudy 
 27/05/2018 - 05:00  11.4°C  11.4°C  1016.1 hPa  71%  12.6 km/h   21.3 km/h  4%  0.03 mm/h  16.1km  61%  Mostly Cloudy 
 27/05/2018 - 06:00  11.9°C  11.9°C  1016.5 hPa  74%  12.4 km/h   19.4 km/h  0%  --  16.1km  70%  Mostly Cloudy 
 27/05/2018 - 07:00  13.4°C  13.4°C  1016.9 hPa  72%  12.5 km/h   19.4 km/h  0%  --  16.1km  73%  Mostly Cloudy 
 27/05/2018 - 08:00  15.0°C  15.0°C  1017.3 hPa  70%  13.3 km/h   21.3 km/h  3%  0.03 mm/h  16.1km  81%  Mostly Cloudy 
 27/05/2018 - 09:00  16.9°C  16.9°C  1017.1 hPa  67%  15.9 km/h   31.9 km/h  4%  0.04 mm/h  16.1km  65%  Mostly Cloudy 
 27/05/2018 - 10:00  18.1°C  18.1°C  1017.3 hPa  65%  17.8 km/h   33.3 km/h  2%  0.02 mm/h  16.1km  59%  Partly Cloudy 
 27/05/2018 - 11:00  18.7°C  18.7°C  1017.1 hPa  66%  19.0 km/h   33.5 km/h  2%  0.02 mm/h  16.1km  53%  Partly Cloudy 
 27/05/2018 - 12:00  18.7°C  18.7°C  1016.9 hPa  69%  20.1 km/h   33.8 km/h  3%  0.04 mm/h  16.1km  65%  Mostly Cloudy 
 27/05/2018 - 13:00  18.4°C  18.4°C  1016.8 hPa  73%  20.8 km/h   33.2 km/h  9%  0.18 mm/h  16.1km  72%  Mostly Cloudy 
 27/05/2018 - 14:00  18.3°C  18.3°C  1016.6 hPa  75%  21.2 km/h   32.3 km/h  12%  0.27 mm/h  16.1km  78%  Mostly Cloudy 
 27/05/2018 - 15:00  18.6°C  18.6°C  1016.5 hPa  74%  20.7 km/h   31.8 km/h  16%  0.44 mm/h  16.1km  80%  Mostly Cloudy 
 27/05/2018 - 16:00  18.9°C  18.9°C  1016.3 hPa  74%  20.1 km/h   28.5 km/h  18%  0.46 mm/h  16.1km  72%  Mostly Cloudy 
 27/05/2018 - 17:00  18.8°C  18.8°C  1016.1 hPa  73%  20.7 km/h   30.6 km/h  17%  0.39 mm/h  16.1km  68%  Mostly Cloudy 
 27/05/2018 - 18:00  18.7°C  18.7°C  1016.1 hPa  71%  20.3 km/h   33.2 km/h  14%  0.24 mm/h  16.1km  68%  Mostly Cloudy 
 27/05/2018 - 19:00  18.4°C  18.4°C  1016.1 hPa  69%  20.0 km/h   36.6 km/h  11%  0.14 mm/h  16.1km  68%  Mostly Cloudy 
 27/05/2018 - 20:00  18.0°C  18.0°C  1016.1 hPa  68%  19.8 km/h   39.3 km/h  11%  0.14 mm/h  16.1km  68%  Mostly Cloudy 
 27/05/2018 - 21:00  17.2°C  17.2°C  1016.1 hPa  67%  20.3 km/h   41.1 km/h  11%  0.13 mm/h  16.1km  68%  Mostly Cloudy 
 27/05/2018 - 22:00  16.1°C  16.1°C  1016.1 hPa  67%  21.0 km/h   42.4 km/h  10%  0.12 mm/h  16.1km  69%  Mostly Cloudy 
 27/05/2018 - 23:00  15.1°C  15.1°C  1016.1 hPa  68%  21.0 km/h   42.4 km/h  10%  0.09 mm/h  16.1km  69%  Mostly Cloudy 
 28/05/2018 - 00:00  14.6°C  14.6°C  1015.8 hPa  68%  19.8 km/h   40.1 km/h  9%  0.06 mm/h  16.1km  68%  Mostly Cloudy 
 28/05/2018 - 01:00  14.2°C  14.2°C  1015.6 hPa  68%  17.8 km/h   36.3 km/h  6%  0.03 mm/h  16.1km  67%  Mostly Cloudy 
 28/05/2018 - 02:00  13.9°C  13.9°C  1015.3 hPa  69%  16.0 km/h   32.8 km/h  3%  0.01 mm/h  16.1km  66%  Mostly Cloudy 
 28/05/2018 - 03:00  13.2°C  13.2°C  1015.0 hPa  72%  14.9 km/h   30.3 km/h  0%  --  16.1km  64%  Mostly Cloudy 
 28/05/2018 - 04:00  12.5°C  12.5°C  1014.7 hPa  77%  14.0 km/h   28.1 km/h  0%  --  16.1km  61%  Mostly Cloudy 
 28/05/2018 - 05:00  11.8°C  11.8°C  1014.4 hPa  82%  13.2 km/h   25.9 km/h  0%  --  16.1km  62%  Mostly Cloudy 
 28/05/2018 - 06:00  11.7°C  11.7°C  1014.2 hPa  84%  12.4 km/h   23.5 km/h  2%  0.01 mm/h  16.1km  71%  Mostly Cloudy 
 28/05/2018 - 07:00  12.2°C  12.2°C  1014.0 hPa  84%  11.7 km/h   20.9 km/h  4%  0.02 mm/h  16.1km  85%  Mostly Cloudy 
 28/05/2018 - 08:00  13.2°C  13.2°C  1013.8 hPa  82%  11.0 km/h   18.4 km/h  5%  0.03 mm/h  16.1km  95%  Overcast 
 28/05/2018 - 09:00  14.2°C  14.2°C  1013.6 hPa  81%  10.3 km/h   15.4 km/h  5%  0.04 mm/h  16.1km  97%  Overcast 
 28/05/2018 - 10:00  15.1°C  15.1°C  1013.5 hPa  82%  9.7 km/h   12.4 km/h  5%  0.04 mm/h  16.1km  99%  Overcast 
 28/05/2018 - 11:00  15.8°C  15.8°C  1013.2 hPa  83%  9.4 km/h   11.5 km/h  4%  0.04 mm/h  16.1km  99%  Overcast 
 28/05/2018 - 12:00  16.7°C  16.7°C  1012.8 hPa  85%  9.5 km/h   13.9 km/h  4%  0.03 mm/h  16.1km  92%  Mostly Cloudy 
 28/05/2018 - 13:00  17.9°C  18.0°C  1012.2 hPa  87%  10.1 km/h   17.9 km/h  2%  0.01 mm/h  16.1km  81%  Mostly Cloudy 
 28/05/2018 - 14:00  19.1°C  19.3°C  1011.6 hPa  86%  10.8 km/h   20.8 km/h  2%  0.01 mm/h  16.1km  73%  Mostly Cloudy 
 28/05/2018 - 15:00  20.3°C  20.6°C  1010.8 hPa  83%  11.8 km/h   21.8 km/h  2%  0.01 mm/h  16.1km  70%  Mostly Cloudy 
 28/05/2018 - 16:00  21.6°C  21.9°C  1009.9 hPa  79%  13.2 km/h   22.0 km/h  2%  0.01 mm/h  16.1km  69%  Mostly Cloudy 
 28/05/2018 - 17:00  22.5°C  22.8°C  1009.2 hPa  76%  14.0 km/h   22.1 km/h  2%  0.01 mm/h  16.1km  68%  Mostly Cloudy 
 28/05/2018 - 18:00  23.0°C  23.4°C  1008.8 hPa  76%  14.1 km/h   21.8 km/h  0%  --  16.1km  63%  Mostly Cloudy 
 28/05/2018 - 19:00  23.1°C  23.4°C  1008.7 hPa  76%  13.8 km/h   21.3 km/h  0%  --  16.1km  57%  Partly Cloudy 
 28/05/2018 - 20:00  22.7°C  23.1°C  1008.8 hPa  78%  13.8 km/h   22.4 km/h  0%  --  16.1km  52%  Partly Cloudy 
 28/05/2018 - 21:00  21.8°C  22.2°C  1009.1 hPa  83%  14.7 km/h   27.0 km/h  5%  0.03 mm/h  16.1km  51%  Partly Cloudy 
 28/05/2018 - 22:00  20.7°C  21.1°C  1009.6 hPa  88%  15.8 km/h   33.1 km/h  10%  0.15 mm/h  16.1km  52%  Partly Cloudy 
 28/05/2018 - 23:00  19.6°C  20.0°C  1010.1 hPa  91%  16.3 km/h   36.6 km/h  13%  0.28 mm/h  16.1km  51%  Partly Cloudy 
 29/05/2018 - 00:00  19.0°C  19.3°C  1010.7 hPa  92%  15.6 km/h   35.6 km/h  12%  0.27 mm/h  16.1km  48%  Partly Cloudy 
 29/05/2018 - 01:00  18.6°C  18.8°C  1011.2 hPa  89%  14.5 km/h   32.1 km/h  10%  0.18 mm/h  16.1km  43%  Partly Cloudy 
 29/05/2018 - 02:00  18.0°C  18.1°C  1011.9 hPa  88%  13.6 km/h   29.1 km/h  8%  0.12 mm/h  16.1km  41%  Partly Cloudy 
 29/05/2018 - 03:00  16.9°C  17.0°C  1012.7 hPa  88%  12.9 km/h   27.7 km/h  7%  0.07 mm/h  16.1km  47%  Partly Cloudy 
Test

 

Past weather and reports

Past weatherFind in this section the past weather conditions, weather archive, graphics, reports and statistics.

Current conditions

Current weather condition for MontrealAll you need to know about the current weather conditions for Montreal. Weather data is updated every 10 minutes.

Weather forecast

Current Montreal weatherSince 2004, celinium.com website has provided accurate weather forecast for Montreal's island.